• Join FlightAware (Why Join?)
  • Login
  • US Flag 
Rudolph Flight #1: Arrived! 
08:57PM EST


 

Airport Tracker/Info


-or-


 

Live Flight TrackerFlight Track Log ✈ PT-TMD ✈ 17-May-2012 ✈ SBBR / BSB - SBRJ / SDU

Flight Track Log - Related Links

Times and Time Zones

All times are in EDT time to prevent confusion due to time zone crossing. See the PT-TMD flight status page for this flight to view local times or setup timezone preferences in your user account.

Time Position Orientation Groundspeed Altitude Reporting Facility
EDT Latitude Longitude Course Direction KTS MPH feet Rate Location/Type
09:31AM -17.8181 -46.6426 148° Southeast  Level Estimated
09:32AM -17.8842 -46.5991 148° Southeast  Level Estimated
09:33AM -17.9502 -46.5556 148° Southeast  Level Estimated
09:34AM -18.0163 -46.5121 148° Southeast  Level Estimated
09:35AM -18.0823 -46.4685 148° Southeast  Level Estimated
09:36AM -18.1484 -46.4249 148° Southeast  Level Estimated
09:37AM -18.2144 -46.3812 148° Southeast  Level Estimated
09:38AM -18.2804 -46.3376 148° Southeast  Level Estimated
09:39AM -18.3464 -46.2939 148° Southeast  Level Estimated
09:40AM -18.4124 -46.2501 148° Southeast  Level Estimated
09:41AM -18.4784 -46.2063 148° Southeast  Level Estimated
09:42AM -18.5444 -46.1625 148° Southeast  Level Estimated
09:43AM -18.6104 -46.1187 148° Southeast  Level Estimated
09:44AM -18.6763 -46.0748 148° Southeast  Level Estimated
09:45AM -18.7423 -46.0309 148° Southeast  Level Estimated
09:46AM -18.8082 -45.9870 148° Southeast  Level Estimated
09:47AM -18.8741 -45.9430 148° Southeast  Level Estimated
09:48AM -18.9400 -45.8990 148° Southeast  Level Estimated
09:49AM -19.0059 -45.8549 148° Southeast  Level Estimated
09:50AM -19.0718 -45.8108 148° Southeast  Level Estimated
09:51AM -19.1377 -45.7667 148° Southeast  Level Estimated
09:52AM -19.2036 -45.7226 148° Southeast  Level Estimated
09:53AM -19.2694 -45.6784 148° Southeast  Level Estimated
09:54AM -19.3353 -45.6342 148° Southeast  Level Estimated
09:55AM -19.4011 -45.5899 148° Southeast  Level Estimated
09:56AM -19.4669 -45.5456 148° Southeast  Level Estimated
09:57AM -19.5328 -45.5013 148° Southeast  Level Estimated
09:58AM -19.5986 -45.4569 148° Southeast  Level Estimated
09:59AM -19.6644 -45.4125 148° Southeast  Level Estimated
10:00AM -19.7302 -45.3681 148° Southeast  Level Estimated
10:01AM -19.7959 -45.3236 148° Southeast  Level Estimated
10:02AM -19.8617 -45.2791 148° Southeast  Level Estimated
10:03AM -19.9275 -45.2346 147° Southeast  Level Estimated
10:04AM -19.9932 -45.1900 147° Southeast  Level Estimated
10:05AM -20.0589 -45.1453 147° Southeast  Level Estimated
10:06AM -20.1246 -45.1007 147° Southeast  Level Estimated
10:07AM -20.1903 -45.0560 147° Southeast  Level Estimated
10:08AM -20.2561 -45.0112 147° Southeast  Level Estimated
10:09AM -20.3217 -44.9665 147° Southeast  Level Estimated
10:10AM -20.3874 -44.9217 147° Southeast  Level Estimated
10:11AM -20.4531 -44.8768 147° Southeast  Level Estimated
10:12AM -20.5187 -44.8319 147° Southeast  Level Estimated
10:13AM -20.5844 -44.7870 147° Southeast  Level Estimated
10:14AM -20.6500 -44.7420 147° Southeast  Level Estimated
10:15AM -20.7156 -44.6970 147° Southeast  Level Estimated
10:16AM -20.7812 -44.6520 147° Southeast  Level Estimated
10:17AM -20.8468 -44.6069 147° Southeast  Level Estimated
10:18AM -20.9124 -44.5618 147° Southeast  Level Estimated
10:19AM -20.9780 -44.5166 147° Southeast  Level Estimated
10:20AM -21.0435 -44.4714 147° Southeast  Level Estimated
10:21AM -21.1091 -44.4262 147° Southeast  Level Estimated
10:22AM -21.1746 -44.3809 147° Southeast  Level Estimated
10:23AM -21.2401 -44.3356 147° Southeast  Level Estimated
10:24AM -21.3056 -44.2902 147° Southeast  Level Estimated
10:25AM -21.3711 -44.2448 147° Southeast  Level Estimated
10:26AM -21.4366 -44.1994 147° Southeast  Level Estimated
10:27AM -21.5021 -44.1539 147° Southeast  Level Estimated
10:28AM -21.5675 -44.1084 147° Southeast  Level Estimated
10:29AM -21.6330 -44.0628 147° Southeast  Level Estimated
10:30AM -21.6984 -44.0172 147° Southeast  Level Estimated
10:31AM -21.7638 -43.9716 147° Southeast  Level Estimated
10:32AM -21.8293 -43.9259 147° Southeast  Level Estimated
10:33AM -21.8947 -43.8801 147° Southeast  Level Estimated
10:34AM -21.9601 -43.8344 147° Southeast  Level Estimated
10:35AM -22.0254 -43.7886 147° Southeast  Level Estimated
10:36AM -22.0908 -43.7427 147° Southeast  Level Estimated
10:37AM -22.1561 -43.6968 147° Southeast  Level Estimated
10:38AM -22.2215 -43.6509 147° Southeast  Level Estimated
10:39AM -22.2868 -43.6049 147° Southeast  Level Estimated
10:40AM -22.3521 -43.5588 147° Southeast  Level Estimated
10:41AM -22.4174 -43.5128 147° Southeast  Level Estimated
10:42AM -22.4827 -43.4666 147° Southeast  Level Estimated
10:43AM -22.5479 -43.4205 147° Southeast  Level Estimated
10:44AM -22.6132 -43.3743 147° Southeast  Level Estimated
10:45AM -22.6784 -43.3280 147° Southeast  Level Estimated
10:46AM -22.7437 -43.2817 147° Southeast  Level Estimated
10:47AM -22.8089 -43.2354 147° Southeast  Level Estimated
10:48AM -22.8741 -43.1890 147° Southeast  Level Estimated
10:49AM -22.9393 -43.1426 327° Northwest  Level Estimated
10:50AM -22.8741 -43.1890 147° Southeast  Level Estimated
10:51AM -22.9393 -43.1426 327° Northwest  Level Estimated
10:52AM -22.8741 -43.1890 147° Southeast  Level Estimated
10:53AM -22.9393 -43.1426 327° Northwest  Level Estimated
10:54AM -22.8741 -43.1890 147° Southeast  Level Estimated
10:55AM -22.9393 -43.1426 327° Northwest  Level Estimated
10:56AM -22.8741 -43.1890 147° Southeast  Level Estimated
10:57AM -22.9393 -43.1426 327° Northwest  Level Estimated
10:58AM -22.8741 -43.1890 147° Southeast  Level Estimated
10:59AM -22.9393 -43.1426 327° Northwest  Level Estimated
11:00AM -22.8741 -43.1890 147° Southeast  Level Estimated
11:01AM -22.9393 -43.1426 327° Northwest  Level Estimated
11:02AM -22.8741 -43.1890 147° Southeast  Level Estimated
11:03AM -22.9393 -43.1426 327° Northwest  Level Estimated
11:04AM -22.8741 -43.1890 327° Northwest  Level Estimated